sensor_id;sensor_type;location;lat;lon;timestamp;pressure;altitude;pressure_sealevel;temperature;humidity
78373;BME280;67656;52.074;4.758;2023-08-21T00:00:45;102370.38;;;18.46;100.00
78373;BME280;67656;52.074;4.758;2023-08-21T00:05:46;102367.53;;;18.51;100.00
78373;BME280;67656;52.074;4.758;2023-08-21T00:10:46;102376.03;;;18.62;100.00
78373;BME280;67656;52.074;4.758;2023-08-21T00:15:46;102370.00;;;18.81;100.00
78373;BME280;67656;52.074;4.758;2023-08-21T00:20:47;102366.25;;;18.85;100.00
78373;BME280;67656;52.074;4.758;2023-08-21T00:25:47;102362.53;;;18.89;100.00
78373;BME280;67656;52.074;4.758;2023-08-21T00:30:48;102369.19;;;18.79;100.00
78373;BME280;67656;52.074;4.758;2023-08-21T00:35:48;102366.13;;;18.88;100.00
78373;BME280;67656;52.074;4.758;2023-08-21T00:40:50;102358.03;;;18.67;100.00
78373;BME280;67656;52.074;4.758;2023-08-21T00:45:51;102358.84;;;18.46;100.00
78373;BME280;67656;52.074;4.758;2023-08-21T00:50:51;102360.78;;;18.40;100.00
78373;BME280;67656;52.074;4.758;2023-08-21T00:55:52;102363.75;;;18.33;100.00
78373;BME280;67656;52.074;4.758;2023-08-21T01:00:52;102367.63;;;18.24;100.00
78373;BME280;67656;52.074;4.758;2023-08-21T01:05:54;102366.03;;;18.18;100.00
78373;BME280;67656;52.074;4.758;2023-08-21T01:16:29;102370.72;;;18.11;100.00
78373;BME280;67656;52.074;4.758;2023-08-21T01:21:29;102362.31;;;17.97;100.00
78373;BME280;67656;52.074;4.758;2023-08-21T01:26:30;102364.31;;;17.90;100.00
78373;BME280;67656;52.074;4.758;2023-08-21T01:31:33;102368.97;;;17.84;100.00
78373;BME280;67656;52.074;4.758;2023-08-21T01:36:34;102366.94;;;17.65;100.00
78373;BME280;67656;52.074;4.758;2023-08-21T01:41:35;102378.31;;;17.72;100.00
78373;BME280;67656;52.074;4.758;2023-08-21T01:46:35;102382.06;;;17.66;100.00
78373;BME280;67656;52.074;4.758;2023-08-21T01:51:36;102378.31;;;17.72;100.00
78373;BME280;67656;52.074;4.758;2023-08-21T01:56:36;102377.31;;;17.74;100.00
78373;BME280;67656;52.074;4.758;2023-08-21T02:01:37;102377.69;;;17.63;100.00
78373;BME280;67656;52.074;4.758;2023-08-21T02:06:37;102383.91;;;17.64;100.00
78373;BME280;67656;52.074;4.758;2023-08-21T02:11:37;102374.53;;;17.50;100.00
78373;BME280;67656;52.074;4.758;2023-08-21T02:16:38;102379.97;;;17.47;100.00
78373;BME280;67656;52.074;4.758;2023-08-21T02:21:38;102380.28;;;17.38;100.00
78373;BME280;67656;52.074;4.758;2023-08-21T02:26:38;102379.44;;;17.38;100.00
78373;BME280;67656;52.074;4.758;2023-08-21T02:31:39;102381.34;;;17.32;100.00
78373;BME280;67656;52.074;4.758;2023-08-21T02:36:39;102378.63;;;17.34;100.00
78373;BME280;67656;52.074;4.758;2023-08-21T02:41:39;102377.75;;;17.33;100.00
78373;BME280;67656;52.074;4.758;2023-08-21T02:46:40;102369.69;;;17.35;100.00
78373;BME280;67656;52.074;4.758;2023-08-21T02:51:40;102369.59;;;17.38;100.00
78373;BME280;67656;52.074;4.758;2023-08-21T02:56:40;102374.47;;;17.25;100.00
78373;BME280;67656;52.074;4.758;2023-08-21T03:01:41;102370.91;;;17.26;100.00
78373;BME280;67656;52.074;4.758;2023-08-21T03:06:41;102372.81;;;17.21;100.00
78373;BME280;67656;52.074;4.758;2023-08-21T03:11:41;102372.91;;;17.18;100.00
78373;BME280;67656;52.074;4.758;2023-08-21T03:16:42;102361.75;;;17.05;100.00
78373;BME280;67656;52.074;4.758;2023-08-21T03:21:43;102364.34;;;16.77;100.00
78373;BME280;67656;52.074;4.758;2023-08-21T03:26:44;102372.88;;;16.89;100.00
78373;BME280;67656;52.074;4.758;2023-08-21T03:31:48;102367.19;;;17.02;100.00
78373;BME280;67656;52.074;4.758;2023-08-21T03:36:49;102377.56;;;16.81;100.00
78373;BME280;67656;52.074;4.758;2023-08-21T03:41:49;102375.63;;;16.86;100.00
78373;BME280;67656;52.074;4.758;2023-08-21T03:46:50;102365.72;;;16.60;100.00
78373;BME280;67656;52.074;4.758;2023-08-21T03:51:50;102378.94;;;16.65;100.00
78373;BME280;67656;52.074;4.758;2023-08-21T03:56:51;102385.03;;;16.68;100.00
78373;BME280;67656;52.074;4.758;2023-08-21T04:01:51;102380.31;;;16.78;100.00
78373;BME280;67656;52.074;4.758;2023-08-21T04:06:51;102380.84;;;16.59;100.00
78373;BME280;67656;52.074;4.758;2023-08-21T04:11:52;102378.03;;;16.64;100.00
78373;BME280;67656;52.074;4.758;2023-08-21T04:16:52;102378.53;;;16.47;100.00
78373;BME280;67656;52.074;4.758;2023-08-21T04:21:54;102386.16;;;16.61;100.00
78373;BME280;67656;52.074;4.758;2023-08-21T04:26:54;102381.88;;;16.54;100.00
78373;BME280;67656;52.074;4.758;2023-08-21T04:31:54;102395.00;;;16.62;100.00
78373;BME280;67656;52.074;4.758;2023-08-21T04:36:55;102390.03;;;16.49;100.00
78373;BME280;67656;52.074;4.758;2023-08-21T04:41:57;102388.00;;;16.57;100.00
78373;BME280;67656;52.074;4.758;2023-08-21T04:47:21;102395.13;;;16.57;100.00
78373;BME280;67656;52.074;4.758;2023-08-21T04:52:23;102398.66;;;16.57;100.00
78373;BME280;67656;52.074;4.758;2023-08-21T04:57:24;102390.63;;;16.59;100.00
78373;BME280;67656;52.074;4.758;2023-08-21T05:02:24;102395.84;;;16.64;100.00
78373;BME280;67656;52.074;4.758;2023-08-21T05:07:26;102400.88;;;16.74;100.00
78373;BME280;67656;52.074;4.758;2023-08-21T05:12:27;102400.88;;;16.73;100.00
78373;BME280;67656;52.074;4.758;2023-08-21T05:17:27;102407.06;;;16.75;100.00
78373;BME280;67656;52.074;4.758;2023-08-21T05:22:28;102408.19;;;16.98;100.00
78373;BME280;67656;52.074;4.758;2023-08-21T05:27:29;102408.19;;;16.98;100.00
78373;BME280;67656;52.074;4.758;2023-08-21T05:32:29;102411.16;;;17.18;100.00
78373;BME280;67656;52.074;4.758;2023-08-21T05:37:30;102406.97;;;17.38;100.00
78373;BME280;67656;52.074;4.758;2023-08-21T05:42:31;102399.50;;;17.49;100.00
78373;BME280;67656;52.074;4.758;2023-08-21T05:47:31;102402.44;;;17.69;100.00
78373;BME280;67656;52.074;4.758;2023-08-21T05:52:32;102401.44;;;18.00;100.00
78373;BME280;67656;52.074;4.758;2023-08-21T05:57:32;102400.75;;;18.20;100.00
78373;BME280;67656;52.074;4.758;2023-08-21T06:02:33;102403.66;;;18.37;100.00
78373;BME280;67656;52.074;4.758;2023-08-21T06:07:35;102406.50;;;18.58;100.00
78373;BME280;67656;52.074;4.758;2023-08-21T06:12:36;102403.59;;;18.88;100.00
78373;BME280;67656;52.074;4.758;2023-08-21T06:17:37;102406.72;;;19.23;100.00
78373;BME280;67656;52.074;4.758;2023-08-21T06:22:37;102402.19;;;19.47;100.00
78373;BME280;67656;52.074;4.758;2023-08-21T06:27:38;102412.38;;;19.82;100.00
78373;BME280;67656;52.074;4.758;2023-08-21T06:32:38;102404.78;;;19.93;100.00
78373;BME280;67656;52.074;4.758;2023-08-21T06:37:39;102400.72;;;20.26;100.00
78373;BME280;67656;52.074;4.758;2023-08-21T06:42:39;102402.88;;;20.37;100.00
78373;BME280;67656;52.074;4.758;2023-08-21T06:47:40;102410.50;;;20.67;100.00
78373;BME280;67656;52.074;4.758;2023-08-21T06:52:42;102395.25;;;21.44;100.00
78373;BME280;67656;52.074;4.758;2023-08-21T06:57:42;102394.16;;;22.87;100.00
78373;BME280;67656;52.074;4.758;2023-08-21T07:02:43;102393.38;;;22.85;100.00
78373;BME280;67656;52.074;4.758;2023-08-21T07:07:43;102391.66;;;23.78;100.00
78373;BME280;67656;52.074;4.758;2023-08-21T07:12:43;102394.16;;;24.27;100.00
78373;BME280;67656;52.074;4.758;2023-08-21T07:17:44;102395.16;;;24.83;100.00
78373;BME280;67656;52.074;4.758;2023-08-21T07:22:44;102389.28;;;25.19;100.00
78373;BME280;67656;52.074;4.758;2023-08-21T07:27:44;102399.56;;;25.68;100.00
78373;BME280;67656;52.074;4.758;2023-08-21T07:32:46;102395.97;;;26.34;100.00
78373;BME280;67656;52.074;4.758;2023-08-21T07:37:46;102392.72;;;27.05;100.00
78373;BME280;67656;52.074;4.758;2023-08-21T07:42:47;102397.94;;;27.08;100.00
78373;BME280;67656;52.074;4.758;2023-08-21T07:47:47;102403.22;;;26.59;100.00
78373;BME280;67656;52.074;4.758;2023-08-21T07:52:47;102404.28;;;26.70;100.00
78373;BME280;67656;52.074;4.758;2023-08-21T07:57:48;102404.03;;;26.98;100.00
78373;BME280;67656;52.074;4.758;2023-08-21T08:02:48;102413.59;;;27.88;100.00
78373;BME280;67656;52.074;4.758;2023-08-21T08:07:48;102418.16;;;28.69;100.00
78373;BME280;67656;52.074;4.758;2023-08-21T08:12:49;102405.09;;;28.29;100.00
78373;BME280;67656;52.074;4.758;2023-08-21T08:17:49;102413.47;;;28.94;100.00
78373;BME280;67656;52.074;4.758;2023-08-21T08:22:50;102412.88;;;28.79;100.00
78373;BME280;67656;52.074;4.758;2023-08-21T08:27:51;102406.28;;;28.13;100.00
78373;BME280;67656;52.074;4.758;2023-08-21T08:32:52;102408.94;;;27.90;100.00
78373;BME280;67656;52.074;4.758;2023-08-21T08:37:52;102416.28;;;28.35;100.00
78373;BME280;67656;52.074;4.758;2023-08-21T08:42:52;102402.03;;;27.98;100.00
78373;BME280;67656;52.074;4.758;2023-08-21T08:47:53;102403.22;;;28.18;100.00
78373;BME280;67656;52.074;4.758;2023-08-21T08:52:53;102412.53;;;27.67;100.00
78373;BME280;67656;52.074;4.758;2023-08-21T08:57:54;102408.66;;;28.29;100.00
78373;BME280;67656;52.074;4.758;2023-08-21T09:02:55;102411.38;;;28.98;100.00
78373;BME280;67656;52.074;4.758;2023-08-21T09:08:02;102407.03;;;29.06;100.00
78373;BME280;67656;52.074;4.758;2023-08-21T09:13:18;102413.72;;;28.57;100.00
78373;BME280;67656;52.074;4.758;2023-08-21T09:18:19;102412.03;;;28.78;100.00
78373;BME280;67656;52.074;4.758;2023-08-21T09:23:19;102407.56;;;28.89;100.00
78373;BME280;67656;52.074;4.758;2023-08-21T09:28:20;102400.50;;;27.82;100.00
78373;BME280;67656;52.074;4.758;2023-08-21T09:33:22;102397.06;;;28.27;100.00
78373;BME280;67656;52.074;4.758;2023-08-21T09:38:25;102395.09;;;29.63;98.34
78373;BME280;67656;52.074;4.758;2023-08-21T09:43:26;102392.16;;;30.29;91.40
78373;BME280;67656;52.074;4.758;2023-08-21T09:48:27;102380.34;;;29.77;93.09
78373;BME280;67656;52.074;4.758;2023-08-21T09:53:27;102396.00;;;30.06;90.45
78373;BME280;67656;52.074;4.758;2023-08-21T09:58:28;102394.22;;;28.51;90.80
78373;BME280;67656;52.074;4.758;2023-08-21T10:03:29;102390.25;;;29.01;92.08
78373;BME280;67656;52.074;4.758;2023-08-21T10:08:30;102384.34;;;28.85;93.46
78373;BME280;67656;52.074;4.758;2023-08-21T10:13:32;102376.94;;;30.06;87.37
78373;BME280;67656;52.074;4.758;2023-08-21T10:18:35;102378.88;;;29.72;89.08
78373;BME280;67656;52.074;4.758;2023-08-21T10:23:37;102385.25;;;29.18;83.57
78373;BME280;67656;52.074;4.758;2023-08-21T10:33:46;102378.53;;;31.80;74.72
78373;BME280;67656;52.074;4.758;2023-08-21T10:38:58;102383.06;;;31.01;79.16
78373;BME280;67656;52.074;4.758;2023-08-21T10:43:59;102377.06;;;29.29;88.76
78373;BME280;67656;52.074;4.758;2023-08-21T10:49:00;102376.97;;;29.19;83.25
78373;BME280;67656;52.074;4.758;2023-08-21T10:54:10;102379.56;;;29.21;84.22
78373;BME280;67656;52.074;4.758;2023-08-21T10:59:11;102370.69;;;29.07;84.14
78373;BME280;67656;52.074;4.758;2023-08-21T11:04:11;102369.78;;;28.86;80.47
78373;BME280;67656;52.074;4.758;2023-08-21T11:09:12;102360.00;;;29.38;80.72
78373;BME280;67656;52.074;4.758;2023-08-21T11:14:13;102359.09;;;29.70;77.18
78373;BME280;67656;52.074;4.758;2023-08-21T11:19:13;102367.03;;;29.41;74.85
78373;BME280;67656;52.074;4.758;2023-08-21T11:24:13;102387.75;;;29.09;78.43
78373;BME280;67656;52.074;4.758;2023-08-21T11:29:14;102374.34;;;29.29;80.51
78373;BME280;67656;52.074;4.758;2023-08-21T11:34:21;102361.22;;;29.88;79.58
78373;BME280;67656;52.074;4.758;2023-08-21T11:39:21;102367.22;;;29.17;85.17
78373;BME280;67656;52.074;4.758;2023-08-21T11:44:22;102372.50;;;28.86;85.30
78373;BME280;67656;52.074;4.758;2023-08-21T11:49:22;102364.44;;;28.95;85.47
78373;BME280;67656;52.074;4.758;2023-08-21T11:54:22;102365.22;;;30.05;66.60
78373;BME280;67656;52.074;4.758;2023-08-21T11:59:23;102359.56;;;29.76;69.04
78373;BME280;67656;52.074;4.758;2023-08-21T12:04:24;102359.91;;;30.03;61.69
78373;BME280;67656;52.074;4.758;2023-08-21T12:09:24;102347.69;;;29.77;68.77
78373;BME280;67656;52.074;4.758;2023-08-21T12:14:25;102336.59;;;29.47;68.02
78373;BME280;67656;52.074;4.758;2023-08-21T12:19:25;102345.53;;;30.54;64.89
78373;BME280;67656;52.074;4.758;2023-08-21T12:24:26;102349.59;;;30.07;69.01
78373;BME280;67656;52.074;4.758;2023-08-21T12:29:26;102340.03;;;30.13;76.48
78373;BME280;67656;52.074;4.758;2023-08-21T12:34:27;102343.69;;;29.81;81.27
78373;BME280;67656;52.074;4.758;2023-08-21T12:39:27;102345.63;;;31.03;70.51
78373;BME280;67656;52.074;4.758;2023-08-21T12:44:27;102351.91;;;29.16;86.52
78373;BME280;67656;52.074;4.758;2023-08-21T12:49:30;102348.88;;;29.63;82.36
78373;BME280;67656;52.074;4.758;2023-08-21T12:54:34;102355.94;;;28.89;89.28
78373;BME280;67656;52.074;4.758;2023-08-21T12:59:34;102347.88;;;28.99;86.39
78373;BME280;67656;52.074;4.758;2023-08-21T13:04:35;102343.69;;;29.38;83.40
78373;BME280;67656;52.074;4.758;2023-08-21T13:09:35;102339.44;;;29.46;83.90
78373;BME280;67656;52.074;4.758;2023-08-21T13:14:36;102344.69;;;28.93;84.01
78373;BME280;67656;52.074;4.758;2023-08-21T13:19:42;102331.94;;;28.94;84.72
78373;BME280;67656;52.074;4.758;2023-08-21T13:24:43;102334.94;;;29.35;84.07
78373;BME280;67656;52.074;4.758;2023-08-21T13:29:45;102329.28;;;28.60;87.32
78373;BME280;67656;52.074;4.758;2023-08-21T13:34:45;102326.31;;;28.63;87.36
78373;BME280;67656;52.074;4.758;2023-08-21T13:39:46;102334.25;;;29.42;89.53
78373;BME280;67656;52.074;4.758;2023-08-21T13:44:46;102333.75;;;29.49;84.12
78373;BME280;67656;52.074;4.758;2023-08-21T13:49:46;102341.44;;;29.32;84.11
78373;BME280;67656;52.074;4.758;2023-08-21T13:54:47;102334.75;;;29.04;84.65
78373;BME280;67656;52.074;4.758;2023-08-21T13:59:47;102330.28;;;28.59;85.69
78373;BME280;67656;52.074;4.758;2023-08-21T14:04:50;102331.25;;;28.92;85.76
78373;BME280;67656;52.074;4.758;2023-08-21T14:09:51;102324.81;;;28.70;87.00
78373;BME280;67656;52.074;4.758;2023-08-21T14:14:51;102323.09;;;28.80;89.24
78373;BME280;67656;52.074;4.758;2023-08-21T14:20:07;102320.41;;;28.46;89.67
78373;BME280;67656;52.074;4.758;2023-08-21T14:25:07;102306.09;;;29.00;86.78
78373;BME280;67656;52.074;4.758;2023-08-21T14:30:08;102298.22;;;28.18;96.09
78373;BME280;67656;52.074;4.758;2023-08-21T14:35:09;102300.88;;;27.96;93.83
78373;BME280;67656;52.074;4.758;2023-08-21T14:40:09;102294.47;;;28.08;97.27
78373;BME280;67656;52.074;4.758;2023-08-21T14:45:10;102294.66;;;27.48;96.55
78373;BME280;67656;52.074;4.758;2023-08-21T14:50:10;102290.66;;;27.99;99.62
78373;BME280;67656;52.074;4.758;2023-08-21T14:55:11;102293.25;;;27.89;94.84
78373;BME280;67656;52.074;4.758;2023-08-21T15:00:12;102282.19;;;27.46;100.00
78373;BME280;67656;52.074;4.758;2023-08-21T15:05:12;102279.16;;;27.73;100.00
78373;BME280;67656;52.074;4.758;2023-08-21T15:10:13;102265.78;;;28.17;95.10
78373;BME280;67656;52.074;4.758;2023-08-21T15:15:13;102257.72;;;27.81;98.26
78373;BME280;67656;52.074;4.758;2023-08-21T15:20:13;102261.41;;;27.69;98.58
78373;BME280;67656;52.074;4.758;2023-08-21T15:25:14;102251.69;;;27.31;100.00
78373;BME280;67656;52.074;4.758;2023-08-21T15:30:14;102246.09;;;27.56;99.67
78373;BME280;67656;52.074;4.758;2023-08-21T15:35:15;102238.97;;;27.20;99.70
78373;BME280;67656;52.074;4.758;2023-08-21T15:40:15;102247.66;;;27.01;100.00
78373;BME280;67656;52.074;4.758;2023-08-21T15:45:16;102258.00;;;27.07;100.00
78373;BME280;67656;52.074;4.758;2023-08-21T15:50:16;102250.88;;;26.81;100.00
78373;BME280;67656;52.074;4.758;2023-08-21T15:55:16;102258.25;;;26.66;100.00
78373;BME280;67656;52.074;4.758;2023-08-21T16:00:17;102262.84;;;26.53;100.00
78373;BME280;67656;52.074;4.758;2023-08-21T16:05:19;102249.63;;;26.61;100.00
78373;BME280;67656;52.074;4.758;2023-08-21T16:10:19;102243.19;;;26.51;100.00
78373;BME280;67656;52.074;4.758;2023-08-21T16:15:20;102236.75;;;26.02;100.00
78373;BME280;67656;52.074;4.758;2023-08-21T16:20:20;102241.31;;;26.01;100.00
78373;BME280;67656;52.074;4.758;2023-08-21T16:25:21;102224.44;;;26.11;100.00
78373;BME280;67656;52.074;4.758;2023-08-21T16:30:21;102217.94;;;26.00;100.00
78373;BME280;67656;52.074;4.758;2023-08-21T16:35:23;102214.50;;;25.85;100.00
78373;BME280;67656;52.074;4.758;2023-08-21T16:40:23;102214.28;;;26.01;100.00
78373;BME280;67656;52.074;4.758;2023-08-21T16:45:24;102219.69;;;26.01;100.00
78373;BME280;67656;52.074;4.758;2023-08-21T16:50:25;102216.56;;;25.82;100.00
78373;BME280;67656;52.074;4.758;2023-08-21T16:55:25;102211.38;;;25.66;100.00
78373;BME280;67656;52.074;4.758;2023-08-21T17:00:25;102213.63;;;25.85;100.00
78373;BME280;67656;52.074;4.758;2023-08-21T17:05:26;102212.56;;;25.74;100.00
78373;BME280;67656;52.074;4.758;2023-08-21T17:10:26;102209.94;;;25.34;100.00
78373;BME280;67656;52.074;4.758;2023-08-21T17:15:27;102213.88;;;25.43;100.00
78373;BME280;67656;52.074;4.758;2023-08-21T17:20:27;102208.94;;;25.09;100.00
78373;BME280;67656;52.074;4.758;2023-08-21T17:25:28;102214.13;;;25.12;100.00
78373;BME280;67656;52.074;4.758;2023-08-21T17:30:28;102209.00;;;25.08;100.00
78373;BME280;67656;52.074;4.758;2023-08-21T17:35:28;102209.56;;;24.73;100.00
78373;BME280;67656;52.074;4.758;2023-08-21T17:40:29;102200.81;;;24.54;100.00
78373;BME280;67656;52.074;4.758;2023-08-21T17:45:29;102195.38;;;24.00;100.00
78373;BME280;67656;52.074;4.758;2023-08-21T17:50:29;102185.81;;;23.94;100.00
78373;BME280;67656;52.074;4.758;2023-08-21T17:55:30;102198.81;;;23.73;100.00
78373;BME280;67656;52.074;4.758;2023-08-21T18:00:30;102194.56;;;23.54;100.00
78373;BME280;67656;52.074;4.758;2023-08-21T18:05:31;102191.47;;;23.46;100.00
78373;BME280;67656;52.074;4.758;2023-08-21T18:10:32;102197.44;;;23.37;100.00
78373;BME280;67656;52.074;4.758;2023-08-21T18:15:33;102192.50;;;22.98;100.00
78373;BME280;67656;52.074;4.758;2023-08-21T18:25:47;102201.34;;;23.00;100.00
78373;BME280;67656;52.074;4.758;2023-08-21T18:30:51;102201.47;;;22.83;100.00
78373;BME280;67656;52.074;4.758;2023-08-21T18:35:52;102205.34;;;22.63;100.00
78373;BME280;67656;52.074;4.758;2023-08-21T18:40:54;102204.56;;;22.45;100.00
78373;BME280;67656;52.074;4.758;2023-08-21T18:45:56;102207.50;;;22.40;100.00
78373;BME280;67656;52.074;4.758;2023-08-21T18:51:01;102208.94;;;22.14;100.00
78373;BME280;67656;52.074;4.758;2023-08-21T18:56:02;102208.53;;;21.88;100.00
78373;BME280;67656;52.074;4.758;2023-08-21T19:01:03;102218.38;;;21.54;100.00
78373;BME280;67656;52.074;4.758;2023-08-21T19:06:33;102226.28;;;21.39;100.00
78373;BME280;67656;52.074;4.758;2023-08-21T19:11:58;102236.47;;;21.32;100.00
78373;BME280;67656;52.074;4.758;2023-08-21T19:16:58;102237.34;;;21.15;100.00
78373;BME280;67656;52.074;4.758;2023-08-21T19:21:59;102232.59;;;21.03;100.00
78373;BME280;67656;52.074;4.758;2023-08-21T19:27:02;102243.00;;;20.92;100.00
78373;BME280;67656;52.074;4.758;2023-08-21T19:32:08;102240.41;;;20.71;100.00
78373;BME280;67656;52.074;4.758;2023-08-21T19:37:09;102239.66;;;20.67;100.00
78373;BME280;67656;52.074;4.758;2023-08-21T19:42:09;102234.50;;;20.45;100.00
78373;BME280;67656;52.074;4.758;2023-08-21T19:47:10;102233.69;;;20.43;100.00
78373;BME280;67656;52.074;4.758;2023-08-21T19:52:11;102232.53;;;20.30;100.00
78373;BME280;67656;52.074;4.758;2023-08-21T19:57:11;102237.22;;;20.24;100.00
78373;BME280;67656;52.074;4.758;2023-08-21T20:02:12;102244.03;;;19.93;100.00
78373;BME280;67656;52.074;4.758;2023-08-21T20:07:15;102247.63;;;19.92;100.00
78373;BME280;67656;52.074;4.758;2023-08-21T20:12:16;102254.75;;;19.93;100.00
78373;BME280;67656;52.074;4.758;2023-08-21T20:17:16;102257.00;;;19.82;100.00
78373;BME280;67656;52.074;4.758;2023-08-21T20:22:17;102248.16;;;19.80;100.00
78373;BME280;67656;52.074;4.758;2023-08-21T20:27:20;102253.19;;;19.67;100.00
78373;BME280;67656;52.074;4.758;2023-08-21T20:32:21;102254.72;;;19.73;100.00
78373;BME280;67656;52.074;4.758;2023-08-21T20:37:23;102246.53;;;19.76;100.00
78373;BME280;67656;52.074;4.758;2023-08-21T20:42:26;102248.72;;;19.68;100.00
78373;BME280;67656;52.074;4.758;2023-08-21T20:47:27;102244.00;;;19.52;100.00
78373;BME280;67656;52.074;4.758;2023-08-21T20:52:27;102233.03;;;19.38;100.00
78373;BME280;67656;52.074;4.758;2023-08-21T20:57:30;102238.94;;;19.46;100.00
78373;BME280;67656;52.074;4.758;2023-08-21T21:02:30;102231.56;;;19.51;100.00
78373;BME280;67656;52.074;4.758;2023-08-21T21:07:33;102224.47;;;19.71;100.00
78373;BME280;67656;52.074;4.758;2023-08-21T21:12:34;102229.69;;;19.53;100.00
78373;BME280;67656;52.074;4.758;2023-08-21T21:17:37;102229.41;;;19.39;100.00
78373;BME280;67656;52.074;4.758;2023-08-21T21:22:37;102242.41;;;19.48;100.00
78373;BME280;67656;52.074;4.758;2023-08-21T21:27:38;102230.75;;;19.28;100.00
78373;BME280;67656;52.074;4.758;2023-08-21T21:32:41;102237.94;;;19.28;100.00
78373;BME280;67656;52.074;4.758;2023-08-21T21:37:47;102238.09;;;19.23;100.00
78373;BME280;67656;52.074;4.758;2023-08-21T21:42:51;102237.56;;;19.15;100.00
78373;BME280;67656;52.074;4.758;2023-08-21T21:47:54;102231.00;;;19.22;100.00
78373;BME280;67656;52.074;4.758;2023-08-21T21:52:58;102240.66;;;19.26;100.00
78373;BME280;67656;52.074;4.758;2023-08-21T21:58:01;102244.06;;;19.30;100.00
78373;BME280;67656;52.074;4.758;2023-08-21T22:03:01;102245.88;;;19.50;100.00
78373;BME280;67656;52.074;4.758;2023-08-21T22:08:07;102229.03;;;19.69;100.00
78373;BME280;67656;52.074;4.758;2023-08-21T22:13:16;102240.66;;;19.68;100.00
78373;BME280;67656;52.074;4.758;2023-08-21T22:18:19;102226.81;;;19.58;100.00
78373;BME280;67656;52.074;4.758;2023-08-21T22:23:22;102242.94;;;19.77;100.00
78373;BME280;67656;52.074;4.758;2023-08-21T22:28:23;102229.41;;;19.80;100.00
78373;BME280;67656;52.074;4.758;2023-08-21T22:33:25;102244.41;;;19.84;100.00
78373;BME280;67656;52.074;4.758;2023-08-21T22:38:26;102220.91;;;19.70;100.00
78373;BME280;67656;52.074;4.758;2023-08-21T22:43:26;102214.53;;;19.73;100.00
78373;BME280;67656;52.074;4.758;2023-08-21T22:48:27;102200.06;;;19.77;100.00
78373;BME280;67656;52.074;4.758;2023-08-21T22:53:30;102184.41;;;19.88;100.00
78373;BME280;67656;52.074;4.758;2023-08-21T22:58:30;102186.28;;;19.86;100.00
78373;BME280;67656;52.074;4.758;2023-08-21T23:03:48;102186.72;;;19.96;100.00
78373;BME280;67656;52.074;4.758;2023-08-21T23:08:49;102196.50;;;19.97;100.00
78373;BME280;67656;52.074;4.758;2023-08-21T23:13:56;102175.94;;;19.98;100.00
78373;BME280;67656;52.074;4.758;2023-08-21T23:18:57;102165.75;;;19.85;100.00
78373;BME280;67656;52.074;4.758;2023-08-21T23:23:58;102173.06;;;19.82;100.00
78373;BME280;67656;52.074;4.758;2023-08-21T23:28:58;102141.34;;;19.72;100.00
78373;BME280;67656;52.074;4.758;2023-08-21T23:33:59;102154.28;;;19.62;100.00
78373;BME280;67656;52.074;4.758;2023-08-21T23:39:02;102150.28;;;19.52;100.00
78373;BME280;67656;52.074;4.758;2023-08-21T23:44:03;102150.84;;;19.40;100.00
78373;BME280;67656;52.074;4.758;2023-08-21T23:49:03;102147.56;;;19.33;100.00
78373;BME280;67656;52.074;4.758;2023-08-21T23:54:04;102156.28;;;19.38;100.00
78373;BME280;67656;52.074;4.758;2023-08-21T23:59:05;102146.16;;;19.24;100.00
